Time;durP1;ratioP1;P1;durP2;ratioP2;P2;SDS_P1;SDS_P2;PMS_P1;PMS_P2;Temp;Humidity;BMP_temperature;BMP_pressure;BME280_temperature;BME280_humidity;BME280_pressure;Samples;Min_cycle;Max_cycle;Signal;HPM_P1;HPM_P2
2021/05/23 00:00:08;;;;;;;6.03;1.60;;;;;;;;;;5053935;28;20108;-75
2021/05/23 00:02:34;;;;;;;2.70;1.50;;;;;;;;;;5054039;28;20081;-75
2021/05/23 00:04:59;;;;;;;4.15;1.88;;;;;;;;;;5054061;28;20041;-74
2021/05/23 00:07:26;;;;;;;2.95;1.50;;;;;;;;;;5053323;28;20043;-74
2021/05/23 00:09:53;;;;;;;2.35;1.23;;;;;;;;;;5053920;28;20382;-74
2021/05/23 00:12:19;;;;;;;3.88;1.10;;;;;;;;;;5053448;28;20405;-73
2021/05/23 00:14:45;;;;;;;2.83;0.98;;;;;;;;;;5036022;28;20029;-73
2021/05/23 00:17:10;;;;;;;3.35;1.17;;;;;;;;;;5035952;28;20080;-74
2021/05/23 00:19:36;;;;;;;3.10;1.35;;;;;;;;;;5053914;28;20116;-73
2021/05/23 00:22:03;;;;;;;2.28;1.38;;;;;;;;;;5053770;28;20504;-74
2021/05/23 00:24:30;;;;;;;3.78;1.63;;;;;;;;;;5035801;28;20032;-73
2021/05/23 00:26:55;;;;;;;3.45;1.35;;;;;;;;;;5053184;28;20045;-74
2021/05/23 00:29:21;;;;;;;2.08;1.30;;;;;;;;;;5053692;28;20044;-73
2021/05/23 00:31:47;;;;;;;3.55;1.48;;;;;;;;;;5053579;28;20033;-74
2021/05/23 00:34:13;;;;;;;2.78;1.55;;;;;;;;;;5053434;28;20048;-74
2021/05/23 00:36:39;;;;;;;2.45;0.93;;;;;;;;;;5053501;28;20048;-73
2021/05/23 00:39:05;;;;;;;4.20;1.23;;;;;;;;;;5034853;28;20041;-74
2021/05/23 00:41:32;;;;;;;4.53;1.30;;;;;;;;;;5053369;28;20033;-73
2021/05/23 00:43:58;;;;;;;3.35;1.45;;;;;;;;;;5035787;28;20119;-74
2021/05/23 00:46:23;;;;;;;3.15;1.20;;;;;;;;;;5053349;28;20091;-74
2021/05/23 00:48:49;;;;;;;3.15;1.25;;;;;;;;;;5053345;28;20043;-74
2021/05/23 00:51:14;;;;;;;3.25;1.40;;;;;;;;;;5053415;28;20502;-74
2021/05/23 00:53:40;;;;;;;3.35;1.20;;;;;;;;;;5053085;28;20029;-74
2021/05/23 00:56:05;;;;;;;2.83;0.95;;;;;;;;;;5035077;28;20041;-73
2021/05/23 00:58:31;;;;;;;5.93;1.05;;;;;;;;;;5034874;28;20119;-74
2021/05/23 01:00:56;;;;;;;2.03;1.10;;;;;;;;;;5035212;28;20435;-74
2021/05/23 01:03:30;;;;;;;3.28;1.20;;;;;;;;;;5053162;28;20040;-74
2021/05/23 01:05:57;;;;;;;2.60;1.02;;;;;;;;;;5053042;28;20378;-74
2021/05/23 01:08:23;;;;;;;2.90;1.20;;;;;;;;;;5035104;28;20082;-73
2021/05/23 01:10:55;;;;;;;5.93;1.40;;;;;;;;;;5052710;28;20037;-74
2021/05/23 01:13:36;;;;;;;4.45;1.52;;;;;;;;;;5053069;28;20029;-74
2021/05/23 01:16:06;;;;;;;3.17;1.20;;;;;;;;;;5034185;28;20029;-74
2021/05/23 01:18:42;;;;;;;2.45;1.33;;;;;;;;;;5053017;28;20052;-75
2021/05/23 01:21:09;;;;;;;4.57;1.38;;;;;;;;;;5052756;28;20064;-75
2021/05/23 01:23:45;;;;;;;5.07;1.60;;;;;;;;;;5053088;28;20033;-75
2021/05/23 01:26:14;;;;;;;3.03;1.38;;;;;;;;;;5052970;28;20037;-75
2021/05/23 01:28:56;;;;;;;7.63;1.00;;;;;;;;;;5053009;28;20079;-75
2021/05/23 01:31:23;;;;;;;2.85;1.20;;;;;;;;;;5052692;28;20044;-75
2021/05/23 01:33:50;;;;;;;4.13;1.38;;;;;;;;;;5052607;28;20521;-75
2021/05/23 01:36:16;;;;;;;5.40;1.15;;;;;;;;;;5052759;28;20033;-75
2021/05/23 01:38:42;;;;;;;5.50;1.58;;;;;;;;;;5052666;28;20459;-75
2021/05/23 01:41:09;;;;;;;4.18;1.10;;;;;;;;;;5051894;28;20068;-75
2021/05/23 01:43:36;;;;;;;4.38;1.33;;;;;;;;;;5052811;28;20529;-75
2021/05/23 01:46:02;;;;;;;3.50;1.38;;;;;;;;;;5052491;28;20028;-75
2021/05/23 01:48:29;;;;;;;2.75;1.30;;;;;;;;;;5052820;28;20114;-75
2021/05/23 01:50:54;;;;;;;4.30;1.42;;;;;;;;;;5052850;28;20052;-75
2021/05/23 01:53:20;;;;;;;4.57;1.60;;;;;;;;;;5035027;28;20033;-75
2021/05/23 01:55:45;;;;;;;3.47;1.42;;;;;;;;;;5054620;28;20045;-75
2021/05/23 01:58:11;;;;;;;3.95;1.58;;;;;;;;;;5056252;28;20039;-75
2021/05/23 02:00:39;;;;;;;3.25;1.75;;;;;;;;;;5056237;28;20123;-75
2021/05/23 02:03:07;;;;;;;4.85;2.05;;;;;;;;;;5056561;28;20433;-75
2021/05/23 02:05:36;;;;;;;2.33;1.30;;;;;;;;;;5056407;28;20033;-75
2021/05/23 02:08:02;;;;;;;7.47;1.60;;;;;;;;;;5056254;28;20040;-75
2021/05/23 02:10:29;;;;;;;5.35;1.35;;;;;;;;;;5037421;28;20064;-75
2021/05/23 02:12:57;;;;;;;4.70;1.70;;;;;;;;;;5056136;28;20065;-75
2021/05/23 02:15:23;;;;;;;4.53;1.60;;;;;;;;;;5038289;28;20041;-75
2021/05/23 02:17:48;;;;;;;5.68;1.55;;;;;;;;;;5056285;28;20044;-75
2021/05/23 02:20:23;;;;;;;4.90;1.45;;;;;;;;;;5056056;28;20065;-75
2021/05/23 02:22:50;;;;;;;6.15;1.60;;;;;;;;;;5018468;28;20037;-75
2021/05/23 02:25:18;;;;;;;3.67;1.35;;;;;;;;;;5035850;28;20102;-75
2021/05/23 02:27:56;;;;;;;6.05;1.40;;;;;;;;;;5018258;28;20041;-75
2021/05/23 02:30:24;;;;;;;7.43;1.50;;;;;;;;;;5036096;28;20120;-75
2021/05/23 02:32:50;;;;;;;5.18;1.35;;;;;;;;;;5035621;28;20052;-75
2021/05/23 02:35:18;;;;;;;3.08;1.63;;;;;;;;;;5018399;28;20041;-75
2021/05/23 02:37:44;;;;;;;5.28;2.13;;;;;;;;;;5035820;28;20117;-76
2021/05/23 02:40:12;;;;;;;4.18;1.30;;;;;;;;;;5017884;28;20139;-75
2021/05/23 02:42:38;;;;;;;3.83;1.30;;;;;;;;;;5050938;28;20388;-75
2021/05/23 02:45:05;;;;;;;5.03;1.73;;;;;;;;;;5055653;28;20036;-75
2021/05/23 02:47:31;;;;;;;4.25;1.45;;;;;;;;;;5055585;28;20029;-75
2021/05/23 02:49:57;;;;;;;3.78;1.27;;;;;;;;;;5037811;28;20475;-75
2021/05/23 02:52:23;;;;;;;3.60;1.60;;;;;;;;;;5055487;28;20078;-75
2021/05/23 02:54:49;;;;;;;1.90;1.10;;;;;;;;;;5055455;28;20078;-75
2021/05/23 02:57:16;;;;;;;4.05;1.27;;;;;;;;;;5055249;28;20509;-75
2021/05/23 02:59:42;;;;;;;3.25;1.05;;;;;;;;;;5055555;28;20215;-75
2021/05/23 03:02:07;;;;;;;2.75;0.90;;;;;;;;;;5055287;28;20558;-75
2021/05/23 03:04:32;;;;;;;4.43;1.70;;;;;;;;;;5055480;28;20037;-75
2021/05/23 03:06:58;;;;;;;2.38;1.10;;;;;;;;;;5053798;28;20033;-75
2021/05/23 03:09:24;;;;;;;5.72;1.33;;;;;;;;;;5055194;28;20422;-75
2021/05/23 03:11:49;;;;;;;3.80;1.38;;;;;;;;;;5054408;28;20466;-75
2021/05/23 03:14:15;;;;;;;5.60;1.00;;;;;;;;;;5037458;28;20160;-75
2021/05/23 03:16:40;;;;;;;4.03;1.70;;;;;;;;;;5037290;28;20040;-75
2021/05/23 03:19:07;;;;;;;1.52;0.70;;;;;;;;;;5054993;28;20398;-75
2021/05/23 03:21:33;;;;;;;1.88;1.40;;;;;;;;;;5036225;28;20497;-75
2021/05/23 03:23:58;;;;;;;3.05;1.00;;;;;;;;;;5055104;28;20428;-75
2021/05/23 03:26:24;;;;;;;3.13;0.95;;;;;;;;;;5054401;28;20075;-75
2021/05/23 03:28:49;;;;;;;7.82;1.13;;;;;;;;;;5054982;28;20079;-75
2021/05/23 03:31:15;;;;;;;4.90;1.73;;;;;;;;;;5054892;28;20040;-75
2021/05/23 03:33:40;;;;;;;4.03;1.13;;;;;;;;;;5054741;28;20056;-75
2021/05/23 03:36:06;;;;;;;3.70;1.33;;;;;;;;;;5054739;28;20025;-75
2021/05/23 03:38:31;;;;;;;5.47;1.02;;;;;;;;;;5054570;28;20529;-75
2021/05/23 03:40:57;;;;;;;4.75;1.42;;;;;;;;;;5054270;28;20041;-75
2021/05/23 03:43:22;;;;;;;1.65;0.80;;;;;;;;;;5054528;28;20487;-75
2021/05/23 03:45:48;;;;;;;2.60;1.10;;;;;;;;;;5054594;28;20091;-75
2021/05/23 03:48:13;;;;;;;6.00;1.73;;;;;;;;;;5054523;28;20025;-75
2021/05/23 03:50:39;;;;;;;4.43;1.25;;;;;;;;;;5054470;28;20037;-75
2021/05/23 03:53:04;;;;;;;5.43;1.38;;;;;;;;;;5053745;28;20044;-75
2021/05/23 03:55:30;;;;;;;3.10;1.17;;;;;;;;;;5054334;28;20127;-75
2021/05/23 03:57:57;;;;;;;5.72;1.05;;;;;;;;;;5053924;28;20044;-75
2021/05/23 04:00:23;;;;;;;4.63;1.13;;;;;;;;;;5036514;28;20047;-76
2021/05/23 04:02:53;;;;;;;1.67;1.20;;;;;;;;;;5054254;28;20041;-75
2021/05/23 04:05:24;;;;;;;3.05;1.15;;;;;;;;;;5036186;28;20043;-75
2021/05/23 04:07:50;;;;;;;3.72;1.13;;;;;;;;;;5036093;28;20041;-75
2021/05/23 04:10:20;;;;;;;1.70;0.77;;;;;;;;;;5053387;28;20039;-75
2021/05/23 04:12:48;;;;;;;3.28;1.08;;;;;;;;;;5053937;28;20406;-75
2021/05/23 04:15:15;;;;;;;2.78;1.02;;;;;;;;;;5036314;28;20521;-75
2021/05/23 04:17:40;;;;;;;3.58;0.98;;;;;;;;;;5053543;28;20037;-76
2021/05/23 04:20:11;;;;;;;2.50;1.00;;;;;;;;;;5053850;28;20040;-75
2021/05/23 04:22:37;;;;;;;4.43;1.10;;;;;;;;;;5053787;28;20055;-75
2021/05/23 04:25:06;;;;;;;3.33;1.17;;;;;;;;;;5035975;28;20104;-74
2021/05/23 04:27:32;;;;;;;3.38;1.13;;;;;;;;;;5053809;28;20033;-75
2021/05/23 04:29:57;;;;;;;2.42;1.20;;;;;;;;;;5053846;28;20542;-75
2021/05/23 04:32:23;;;;;;;4.53;1.10;;;;;;;;;;5052578;28;20390;-75
2021/05/23 04:34:48;;;;;;;2.00;0.98;;;;;;;;;;5033135;28;20046;-75
2021/05/23 04:37:15;;;;;;;2.50;1.10;;;;;;;;;;5016054;28;20492;-74
2021/05/23 04:39:42;;;;;;;2.08;1.05;;;;;;;;;;5042847;28;20041;-75
2021/05/23 04:42:07;;;;;;;2.78;1.27;;;;;;;;;;5053430;28;20059;-75
2021/05/23 04:44:33;;;;;;;2.03;0.70;;;;;;;;;;5053651;28;20467;-75
2021/05/23 04:46:58;;;;;;;1.98;0.88;;;;;;;;;;5053121;28;20125;-75
2021/05/23 04:49:24;;;;;;;2.22;0.82;;;;;;;;;;5035824;28;20367;-75
2021/05/23 04:51:49;;;;;;;3.05;1.13;;;;;;;;;;5053474;28;20072;-75
2021/05/23 04:54:15;;;;;;;2.05;0.95;;;;;;;;;;5053110;28;20040;-75
2021/05/23 04:56:40;;;;;;;2.25;0.98;;;;;;;;;;5053231;28;20064;-75
2021/05/23 04:59:05;;;;;;;2.75;1.08;;;;;;;;;;5053337;28;20455;-75
2021/05/23 05:01:31;;;;;;;3.30;1.25;;;;;;;;;;5053282;28;20036;-75
2021/05/23 05:03:56;;;;;;;5.13;1.25;;;;;;;;;;5052101;28;20410;-75
2021/05/23 05:06:22;;;;;;;3.38;1.20;;;;;;;;;;5053391;28;20037;-75
2021/05/23 05:08:47;;;;;;;2.47;1.00;;;;;;;;;;5053320;28;20029;-75
2021/05/23 05:11:13;;;;;;;4.63;1.63;;;;;;;;;;5053099;28;20052;-75
2021/05/23 05:13:38;;;;;;;4.28;1.45;;;;;;;;;;5052919;28;20131;-75
2021/05/23 05:16:04;;;;;;;2.15;1.20;;;;;;;;;;5034380;28;20037;-74
2021/05/23 05:18:30;;;;;;;4.82;0.98;;;;;;;;;;5052942;28;20037;-78
2021/05/23 05:20:56;;;;;;;2.95;1.15;;;;;;;;;;5052627;28;20037;-74
2021/05/23 05:23:21;;;;;;;4.22;1.55;;;;;;;;;;5052930;28;20043;-74
2021/05/23 05:25:47;;;;;;;2.70;1.20;;;;;;;;;;5053114;28;20459;-77
2021/05/23 05:28:13;;;;;;;2.28;1.30;;;;;;;;;;5035179;28;20033;-77
2021/05/23 05:30:38;;;;;;;1.17;0.90;;;;;;;;;;5037213;28;20152;-77
2021/05/23 05:33:04;;;;;;;2.05;1.35;;;;;;;;;;5056516;28;20037;-78
2021/05/23 05:35:29;;;;;;;3.60;1.10;;;;;;;;;;5057060;28;20164;-75
2021/05/23 05:37:54;;;;;;;5.25;1.65;;;;;;;;;;5038989;28;20481;-76
2021/05/23 05:40:20;;;;;;;4.13;1.60;;;;;;;;;;5056003;28;20075;-76
2021/05/23 05:42:45;;;;;;;3.70;0.98;;;;;;;;;;5056859;28;20045;-75
2021/05/23 05:45:11;;;;;;;4.40;1.23;;;;;;;;;;5056824;28;20376;-75
2021/05/23 05:47:37;;;;;;;5.00;1.20;;;;;;;;;;5056482;28;20033;-76
2021/05/23 05:50:03;;;;;;;7.60;1.20;;;;;;;;;;5055940;28;20398;-74
2021/05/23 05:52:29;;;;;;;3.75;1.42;;;;;;;;;;5056496;28;20036;-74
2021/05/23 05:54:54;;;;;;;1.38;0.93;;;;;;;;;;5056260;28;20371;-74
2021/05/23 05:57:20;;;;;;;2.05;1.23;;;;;;;;;;5038554;28;20087;-74
2021/05/23 05:59:45;;;;;;;4.35;1.60;;;;;;;;;;5056320;28;20043;-74
2021/05/23 06:02:11;;;;;;;3.53;1.27;;;;;;;;;;5055404;28;20075;-74
2021/05/23 06:04:36;;;;;;;6.97;2.75;;;;;;;;;;5056253;28;20048;-74
2021/05/23 06:07:02;;;;;;;2.83;1.10;;;;;;;;;;5056406;28;20479;-74
2021/05/23 06:09:27;;;;;;;3.55;1.58;;;;;;;;;;5038165;28;20029;-74
2021/05/23 06:11:53;;;;;;;1.95;0.90;;;;;;;;;;5037669;28;20029;-73
2021/05/23 06:14:18;;;;;;;4.13;1.30;;;;;;;;;;5056377;28;20033;-73
2021/05/23 06:16:43;;;;;;;4.03;1.70;;;;;;;;;;5056133;28;20136;-73
2021/05/23 06:19:09;;;;;;;4.53;1.10;;;;;;;;;;5056571;28;20037;-73
2021/05/23 06:21:34;;;;;;;2.45;1.20;;;;;;;;;;5038471;28;20029;-74
2021/05/23 06:24:00;;;;;;;1.00;0.63;;;;;;;;;;5056289;28;20035;-74
2021/05/23 06:26:28;;;;;;;3.78;1.23;;;;;;;;;;5055660;28;20037;-74
2021/05/23 06:28:54;;;;;;;5.13;1.17;;;;;;;;;;5056130;28;20356;-73
2021/05/23 06:31:23;;;;;;;3.58;1.10;;;;;;;;;;5055850;28;20040;-73
2021/05/23 06:33:49;;;;;;;2.53;0.80;;;;;;;;;;5055085;28;20407;-72
2021/05/23 06:36:14;;;;;;;3.13;1.00;;;;;;;;;;5037853;28;20024;-71
2021/05/23 06:38:40;;;;;;;3.63;1.10;;;;;;;;;;5055623;28;20501;-72
2021/05/23 06:41:06;;;;;;;2.65;0.90;;;;;;;;;;5054584;28;20124;-71
2021/05/23 06:43:31;;;;;;;1.90;0.80;;;;;;;;;;5020945;28;20037;-71
2021/05/23 06:45:57;;;;;;;3.10;1.02;;;;;;;;;;5055510;28;20053;-72
2021/05/23 06:48:22;;;;;;;2.78;1.23;;;;;;;;;;5055617;28;20063;-71
2021/05/23 06:50:50;;;;;;;4.80;1.17;;;;;;;;;;5055578;28;20032;-72
2021/05/23 06:53:15;;;;;;;1.45;1.30;;;;;;;;;;5055482;28;20107;-72
2021/05/23 06:55:41;;;;;;;2.25;1.15;;;;;;;;;;5055184;28;20036;-72
2021/05/23 06:58:06;;;;;;;3.42;1.10;;;;;;;;;;5055443;28;20036;-72
2021/05/23 07:00:31;;;;;;;2.22;0.85;;;;;;;;;;5055003;28;20064;-72
2021/05/23 07:02:57;;;;;;;2.03;1.10;;;;;;;;;;5055256;28;20041;-72
2021/05/23 07:05:22;;;;;;;3.47;0.98;;;;;;;;;;5055056;28;20119;-72
2021/05/23 07:07:48;;;;;;;1.38;0.70;;;;;;;;;;5055184;28;20167;-73
2021/05/23 07:10:14;;;;;;;1.60;0.73;;;;;;;;;;5054989;28;20075;-73
2021/05/23 07:12:39;;;;;;;4.35;0.98;;;;;;;;;;5055191;28;20360;-72
2021/05/23 07:15:07;;;;;;;1.90;1.10;;;;;;;;;;5055049;28;20151;-72
2021/05/23 07:17:33;;;;;;;2.58;1.13;;;;;;;;;;5054815;28;20029;-73
2021/05/23 07:19:58;;;;;;;2.08;0.95;;;;;;;;;;5055023;28;20029;-74
2021/05/23 07:22:24;;;;;;;2.15;0.98;;;;;;;;;;5036025;28;20360;-74
2021/05/23 07:24:49;;;;;;;3.50;1.13;;;;;;;;;;5054817;28;20061;-74
2021/05/23 07:27:15;;;;;;;4.38;1.13;;;;;;;;;;5054848;28;20383;-75
2021/05/23 07:29:40;;;;;;;2.50;1.10;;;;;;;;;;5055788;28;20040;-76
2021/05/23 07:32:06;;;;;;;1.10;0.98;;;;;;;;;;5055725;28;20558;-75
2021/05/23 07:34:31;;;;;;;4.82;1.05;;;;;;;;;;5055831;28;20045;-75
2021/05/23 07:36:57;;;;;;;3.15;1.00;;;;;;;;;;5055545;28;20041;-75
2021/05/23 07:39:22;;;;;;;0.68;0.65;;;;;;;;;;5054629;28;20360;-74
2021/05/23 07:41:47;;;;;;;1.52;0.88;;;;;;;;;;5036856;28;20025;-75
2021/05/23 07:44:13;;;;;;;2.00;1.00;;;;;;;;;;5036849;28;20043;-76
2021/05/23 07:46:38;;;;;;;3.00;0.55;;;;;;;;;;5054729;28;20029;-79
2021/05/23 07:49:04;;;;;;;1.70;0.70;;;;;;;;;;5040159;28;20076;-77
2021/05/23 07:51:29;;;;;;;1.75;0.88;;;;;;;;;;5054290;28;20040;-76
2021/05/23 07:53:55;;;;;;;3.38;1.00;;;;;;;;;;5054015;28;20090;-76
2021/05/23 07:56:20;;;;;;;2.45;0.70;;;;;;;;;;5055024;28;20032;-77
2021/05/23 07:58:46;;;;;;;0.90;0.70;;;;;;;;;;5055411;28;20048;-77
2021/05/23 08:01:13;;;;;;;3.95;1.30;;;;;;;;;;5054768;28;20039;-77
2021/05/23 08:03:39;;;;;;;1.58;1.02;;;;;;;;;;5055266;28;20036;-80
2021/05/23 08:06:05;;;;;;;1.75;1.02;;;;;;;;;;5058971;28;20040;-78
2021/05/23 08:08:31;;;;;;;2.60;0.90;;;;;;;;;;5054883;28;20032;-74
2021/05/23 08:10:56;;;;;;;1.85;0.90;;;;;;;;;;5054500;28;20040;-74
2021/05/23 08:13:21;;;;;;;1.65;1.25;;;;;;;;;;5036430;28;20032;-74
2021/05/23 08:15:47;;;;;;;2.90;1.17;;;;;;;;;;5036163;28;20036;-75
2021/05/23 08:18:17;;;;;;;4.80;1.50;;;;;;;;;;5054360;28;20044;-75
2021/05/23 08:20:42;;;;;;;2.45;1.20;;;;;;;;;;5037950;28;20036;-75
2021/05/23 08:23:07;;;;;;;1.40;1.17;;;;;;;;;;5035378;28;20398;-76
2021/05/23 08:25:33;;;;;;;0.88;0.88;;;;;;;;;;5036147;28;20021;-76
2021/05/23 08:27:58;;;;;;;1.48;1.20;;;;;;;;;;5053653;28;20463;-76
2021/05/23 08:30:24;;;;;;;1.67;1.02;;;;;;;;;;5054246;28;20036;-76
2021/05/23 08:32:49;;;;;;;3.55;1.38;;;;;;;;;;5035463;28;20036;-76
2021/05/23 08:35:15;;;;;;;1.27;1.17;;;;;;;;;;5054930;28;20052;-77
2021/05/23 08:37:40;;;;;;;2.20;1.30;;;;;;;;;;5055284;28;20163;-75
2021/05/23 08:40:07;;;;;;;2.60;1.88;;;;;;;;;;5036911;28;20033;-74
2021/05/23 08:42:33;;;;;;;3.35;2.20;;;;;;;;;;5054656;28;20033;-75
2021/05/23 08:44:59;;;;;;;3.17;1.92;;;;;;;;;;5039754;28;20037;-77
2021/05/23 08:47:25;;;;;;;2.22;2.00;;;;;;;;;;5054191;28;20111;-75
2021/05/23 08:49:51;;;;;;;2.03;1.73;;;;;;;;;;5054056;28;20224;-74
2021/05/23 08:52:18;;;;;;;3.05;2.00;;;;;;;;;;5057983;28;20562;-74
2021/05/23 08:54:44;;;;;;;2.70;2.20;;;;;;;;;;5061520;28;20037;-75
2021/05/23 08:57:10;;;;;;;5.22;2.38;;;;;;;;;;5026721;28;20048;-74
2021/05/23 08:59:35;;;;;;;3.67;2.50;;;;;;;;;;5062975;28;20107;-74
2021/05/23 09:02:06;;;;;;;4.88;2.90;;;;;;;;;;5044142;28;20407;-74
2021/05/23 09:04:32;;;;;;;3.00;2.70;;;;;;;;;;5055780;28;20032;-74
2021/05/23 09:07:04;;;;;;;3.17;2.38;;;;;;;;;;5064235;28;20065;-74
2021/05/23 09:09:41;;;;;;;3.10;2.20;;;;;;;;;;5056214;28;20028;-73
2021/05/23 09:12:08;;;;;;;3.03;2.33;;;;;;;;;;5035226;28;20102;-73
2021/05/23 09:14:35;;;;;;;6.40;2.33;;;;;;;;;;5033014;28;20502;-75
2021/05/23 09:17:01;;;;;;;3.13;2.67;;;;;;;;;;5033364;28;20083;-74
2021/05/23 09:19:27;;;;;;;4.18;2.28;;;;;;;;;;5034665;28;20504;-82
2021/05/23 09:21:53;;;;;;;2.85;2.10;;;;;;;;;;5036394;28;20033;-76
2021/05/23 09:24:19;;;;;;;2.75;1.63;;;;;;;;;;5037314;28;20033;-79
2021/05/23 09:26:50;;;;;;;7.65;1.65;;;;;;;;;;5020731;28;20041;-79
2021/05/23 09:29:19;;;;;;;1.75;1.15;;;;;;;;;;5000168;28;20052;-77
2021/05/23 09:31:48;;;;;;;1.20;1.10;;;;;;;;;;5033870;28;20105;-76
2021/05/23 09:34:25;;;;;;;2.17;1.10;;;;;;;;;;5033708;28;20128;-77
2021/05/23 09:36:51;;;;;;;0.50;0.50;;;;;;;;;;5049996;28;20115;-77
2021/05/23 09:39:20;;;;;;;0.40;0.40;;;;;;;;;;5069088;28;20040;-77
2021/05/23 09:41:47;;;;;;;0.30;0.30;;;;;;;;;;5033568;28;20047;-76
2021/05/23 09:44:16;;;;;;;0.50;0.50;;;;;;;;;;5054054;28;20044;-77
2021/05/23 09:47:09;;;;;;;1.77;0.75;;;;;;;;;;5052926;28;20057;-77
2021/05/23 09:49:51;;;;;;;1.00;0.47;;;;;;;;;;5054396;28;20475;-76
2021/05/23 09:52:38;;;;;;;1.10;0.40;;;;;;;;;;5053288;28;20040;-77
2021/05/23 09:55:05;;;;;;;0.98;0.65;;;;;;;;;;5035351;28;20033;-78
2021/05/23 09:57:30;;;;;;;0.65;0.50;;;;;;;;;;5052782;28;20082;-77
2021/05/23 10:00:13;;;;;;;0.80;0.60;;;;;;;;;;5057037;28;20032;-77
2021/05/23 10:02:59;;;;;;;1.60;0.88;;;;;;;;;;5050247;28;20060;-77
2021/05/23 10:05:27;;;;;;;3.25;0.90;;;;;;;;;;5075076;28;20051;-77
2021/05/23 10:07:52;;;;;;;1.25;0.70;;;;;;;;;;5062951;28;20025;-78
2021/05/23 10:10:18;;;;;;;1.02;0.63;;;;;;;;;;5053063;28;20056;-78
2021/05/23 10:12:44;;;;;;;1.17;0.55;;;;;;;;;;5037987;28;20463;-77
2021/05/23 10:15:12;;;;;;;1.48;0.80;;;;;;;;;;5037502;28;20025;-77
2021/05/23 10:17:39;;;;;;;1.65;0.63;;;;;;;;;;5041736;28;20041;-77
2021/05/23 10:20:19;;;;;;;1.35;0.70;;;;;;;;;;5060926;28;20047;-78
2021/05/23 10:23:15;;;;;;;1.88;0.70;;;;;;;;;;5031768;28;20158;-76
2021/05/23 10:25:49;;;;;;;2.38;0.80;;;;;;;;;;5056284;28;20028;-79
2021/05/23 10:28:16;;;;;;;1.20;0.63;;;;;;;;;;5061763;28;20032;-81
2021/05/23 10:30:54;;;;;;;1.90;0.88;;;;;;;;;;5027161;28;20394;-80
2021/05/23 10:33:21;;;;;;;2.35;0.90;;;;;;;;;;5056183;28;20375;-79
2021/05/23 10:35:49;;;;;;;1.80;0.90;;;;;;;;;;5056557;28;20039;-80
2021/05/23 10:38:19;;;;;;;3.47;0.90;;;;;;;;;;5051181;28;20064;-80
2021/05/23 10:40:55;;;;;;;2.03;0.70;;;;;;;;;;5061165;28;20506;-82
2021/05/23 10:43:29;;;;;;;5.05;1.13;;;;;;;;;;5043367;28;20041;-76
2021/05/23 10:46:12;;;;;;;2.78;0.93;;;;;;;;;;5054640;28;20025;-75
2021/05/23 10:48:39;;;;;;;5.15;1.00;;;;;;;;;;5054925;28;20051;-76
2021/05/23 10:51:16;;;;;;;2.05;0.80;;;;;;;;;;5055323;28;20039;-75
2021/05/23 10:53:43;;;;;;;5.72;1.13;;;;;;;;;;5054911;28;20441;-76
2021/05/23 10:56:29;;;;;;;3.10;1.10;;;;;;;;;;5037220;28;20374;-76
2021/05/23 10:59:02;;;;;;;2.00;0.90;;;;;;;;;;5054546;28;20091;-75
2021/05/23 11:01:43;;;;;;;2.70;1.00;;;;;;;;;;5055633;28;20039;-76
2021/05/23 11:04:12;;;;;;;2.45;0.95;;;;;;;;;;5047965;28;20043;-75
2021/05/23 11:06:39;;;;;;;5.25;1.00;;;;;;;;;;5055272;28;20025;-76
2021/05/23 11:09:09;;;;;;;2.60;0.88;;;;;;;;;;5055102;28;20021;-76
2021/05/23 11:11:35;;;;;;;3.13;1.10;;;;;;;;;;5057668;28;20082;-76
2021/05/23 11:14:24;;;;;;;3.20;1.00;;;;;;;;;;5055091;28;20045;-76
2021/05/23 11:16:53;;;;;;;5.65;0.90;;;;;;;;;;5053460;28;20130;-76
2021/05/23 11:19:19;;;;;;;6.70;1.10;;;;;;;;;;5058395;28;20044;-76
2021/05/23 11:21:47;;;;;;;2.63;0.90;;;;;;;;;;5054094;28;20562;-76
2021/05/23 11:24:13;;;;;;;2.42;0.90;;;;;;;;;;5054455;28;20035;-76
2021/05/23 11:26:39;;;;;;;4.72;1.02;;;;;;;;;;5053698;28;20482;-77
2021/05/23 11:29:06;;;;;;;2.13;0.70;;;;;;;;;;5053509;28;20069;-76
2021/05/23 11:31:39;;;;;;;26.30;19.63;;;;;;;;;;5053942;28;20084;-77
2021/05/23 11:34:06;;;;;;;41.15;28.65;;;;;;;;;;5033859;28;21118;-76
2021/05/23 11:36:35;;;;;;;3.92;1.88;;;;;;;;;;5053536;28;20037;-77
2021/05/23 11:39:09;;;;;;;1.33;0.73;;;;;;;;;;5054871;28;20091;-75
2021/05/23 11:41:52;;;;;;;2.78;0.80;;;;;;;;;;5054369;28;20079;-78
2021/05/23 11:44:18;;;;;;;5.18;0.98;;;;;;;;;;5053123;28;20040;-80
2021/05/23 11:46:52;;;;;;;2.15;0.77;;;;;;;;;;5054516;28;20394;-77
2021/05/23 11:49:21;;;;;;;4.13;1.30;;;;;;;;;;5022439;28;20481;-79
2021/05/23 11:51:48;;;;;;;4.40;1.10;;;;;;;;;;5055364;28;20028;-78
2021/05/23 11:54:14;;;;;;;2.92;0.95;;;;;;;;;;5054269;28;20416;-77
2021/05/23 11:56:40;;;;;;;3.13;1.00;;;;;;;;;;5036903;28;20029;-76
2021/05/23 11:59:08;;;;;;;5.15;1.00;;;;;;;;;;5055253;28;20036;-79
2021/05/23 12:01:36;;;;;;;4.82;1.25;;;;;;;;;;5057320;28;20033;-80
2021/05/23 12:04:12;;;;;;;5.72;1.30;;;;;;;;;;5038002;28;20033;-79
2021/05/23 12:06:41;;;;;;;;;;;;;;;;;;5036957;28;20044;-77
2021/05/23 12:09:11;;;;;;;2.13;0.80;;;;;;;;;;5054427;28;20378;-78
2021/05/23 12:11:38;;;;;;;3.00;1.10;;;;;;;;;;5055783;28;20518;-79
2021/05/23 12:14:04;;;;;;;4.60;1.00;;;;;;;;;;5055275;28;20471;-78
2021/05/23 12:16:30;;;;;;;7.05;1.25;;;;;;;;;;5052794;28;20534;-77
2021/05/23 12:18:57;;;;;;;4.35;1.00;;;;;;;;;;5052930;28;20076;-77
2021/05/23 12:21:29;;;;;;;3.17;1.00;;;;;;;;;;5054963;28;20482;-77
2021/05/23 12:23:56;;;;;;;4.72;1.23;;;;;;;;;;5070337;28;20486;-77
2021/05/23 12:26:24;;;;;;;1.60;0.80;;;;;;;;;;5067827;28;20028;-76
2021/05/23 12:28:52;;;;;;;2.17;0.85;;;;;;;;;;5056784;28;20045;-77
2021/05/23 12:31:20;;;;;;;4.93;1.52;;;;;;;;;;5049347;28;20029;-76
2021/05/23 12:33:49;;;;;;;4.03;1.00;;;;;;;;;;5051814;28;20051;-77
2021/05/23 12:36:16;;;;;;;6.35;0.90;;;;;;;;;;5051127;28;20033;-77
2021/05/23 12:38:59;;;;;;;5.07;1.05;;;;;;;;;;5052679;28;20059;-77
2021/05/23 12:41:36;;;;;;;2.55;0.88;;;;;;;;;;5056317;28;20052;-78
2021/05/23 12:44:03;;;;;;;2.47;0.90;;;;;;;;;;5049949;28;20394;-77
2021/05/23 12:46:28;;;;;;;3.55;0.80;;;;;;;;;;5054193;28;20037;-79
2021/05/23 12:48:54;;;;;;;2.75;0.98;;;;;;;;;;5054873;28;20050;-78
2021/05/23 12:51:23;;;;;;;2.65;0.93;;;;;;;;;;5054745;28;20060;-78
2021/05/23 12:53:54;;;;;;;2.75;0.90;;;;;;;;;;5037391;28;20123;-78
2021/05/23 12:56:27;;;;;;;1.45;0.65;;;;;;;;;;5054433;28;20032;-78
2021/05/23 12:58:55;;;;;;;1.85;0.68;;;;;;;;;;5037626;28;20044;-81
2021/05/23 13:01:45;;;;;;;3.88;0.80;;;;;;;;;;5055748;28;20036;-79
2021/05/23 13:04:26;;;;;;;5.57;0.93;;;;;;;;;;5076662;28;20551;-81
2021/05/23 13:07:01;;;;;;;5.15;0.82;;;;;;;;;;5021068;28;20040;-80
2021/05/23 13:09:31;;;;;;;2.15;0.88;;;;;;;;;;5028980;28;20040;-80
2021/05/23 13:12:04;;;;;;;2.45;0.80;;;;;;;;;;5049512;28;20033;-78
2021/05/23 13:14:33;;;;;;;1.83;0.80;;;;;;;;;;5039313;28;20099;-78
2021/05/23 13:17:00;;;;;;;1.90;0.82;;;;;;;;;;5050705;28;20048;-79
2021/05/23 13:19:30;;;;;;;3.83;1.30;;;;;;;;;;5074938;28;20040;-76
2021/05/23 13:21:57;;;;;;;5.65;1.20;;;;;;;;;;5069252;28;20098;-79
2021/05/23 13:24:26;;;;;;;3.58;0.90;;;;;;;;;;5037955;28;20033;-77
2021/05/23 13:26:57;;;;;;;8.77;0.90;;;;;;;;;;5054997;28;20033;-79
2021/05/23 13:29:23;;;;;;;2.20;0.98;;;;;;;;;;5054710;28;20087;-78
2021/05/23 13:31:49;;;;;;;4.85;1.52;;;;;;;;;;5036670;28;20028;-79
2021/05/23 13:34:14;;;;;;;4.22;0.77;;;;;;;;;;5058943;28;20037;-80
2021/05/23 13:36:41;;;;;;;3.63;0.80;;;;;;;;;;5065968;28;20048;-79
2021/05/23 13:39:07;;;;;;;4.90;0.77;;;;;;;;;;5069528;28;20033;-79
2021/05/23 13:41:37;;;;;;;1.48;0.80;;;;;;;;;;5054735;28;20037;-79
2021/05/23 13:44:02;;;;;;;2.67;0.95;;;;;;;;;;5055047;28;20108;-80
2021/05/23 13:46:28;;;;;;;3.35;0.80;;;;;;;;;;5054707;28;20056;-79
2021/05/23 13:48:53;;;;;;;6.45;2.13;;;;;;;;;;5037834;28;20037;-81
2021/05/23 13:51:19;;;;;;;5.93;1.48;;;;;;;;;;5061513;28;20032;-79
2021/05/23 13:53:44;;;;;;;3.95;1.27;;;;;;;;;;5072760;28;20033;-79
2021/05/23 13:56:10;;;;;;;4.80;1.00;;;;;;;;;;5072530;28;20091;-77
2021/05/23 13:58:35;;;;;;;3.17;0.98;;;;;;;;;;5076461;28;20082;-77
2021/05/23 14:01:01;;;;;;;3.53;1.00;;;;;;;;;;5076483;28;20359;-77
2021/05/23 14:03:26;;;;;;;3.40;0.70;;;;;;;;;;5076464;28;20051;-77
2021/05/23 14:05:54;;;;;;;2.83;1.38;;;;;;;;;;5076142;28;20029;-78
2021/05/23 14:08:20;;;;;;;2.88;0.90;;;;;;;;;;5065205;28;20025;-77
2021/05/23 14:10:47;;;;;;;2.47;0.80;;;;;;;;;;5045728;28;20733;-77
2021/05/23 14:13:13;;;;;;;2.70;0.80;;;;;;;;;;5064253;28;20037;-77
2021/05/23 14:15:39;;;;;;;5.60;1.30;;;;;;;;;;5056098;28;20048;-77
2021/05/23 14:18:05;;;;;;;3.33;0.90;;;;;;;;;;5056103;28;20033;-77
2021/05/23 14:20:30;;;;;;;2.15;1.17;;;;;;;;;;5056228;28;20036;-77
2021/05/23 14:22:56;;;;;;;4.25;1.05;;;;;;;;;;5056100;28;20047;-77
2021/05/23 14:25:23;;;;;;;2.25;1.58;;;;;;;;;;5056029;28;20079;-77
2021/05/23 14:27:49;;;;;;;3.33;1.15;;;;;;;;;;5056091;28;20045;-77
2021/05/23 14:30:15;;;;;;;2.42;0.73;;;;;;;;;;5056247;28;20102;-77
2021/05/23 14:32:43;;;;;;;5.05;1.30;;;;;;;;;;5055234;28;20383;-77
2021/05/23 14:35:10;;;;;;;7.70;1.58;;;;;;;;;;5021460;28;20084;-77
2021/05/23 14:37:35;;;;;;;2.47;0.80;;;;;;;;;;5055963;28;20028;-77
2021/05/23 14:40:01;;;;;;;1.85;0.90;;;;;;;;;;5055628;28;20501;-77
2021/05/23 14:42:27;;;;;;;2.85;0.82;;;;;;;;;;5055852;28;20166;-77
2021/05/23 14:44:53;;;;;;;3.90;1.10;;;;;;;;;;5055620;28;20178;-77